createdAt,value
2022-08-07T00:00:26.715Z,15.88
2022-08-07T00:02:57.452Z,12.63
2022-08-07T00:05:25.191Z,15.00
2022-08-07T00:08:00.351Z,13.52
2022-08-07T00:10:31.202Z,16.40
2022-08-07T00:13:02.275Z,14.18
2022-08-07T00:15:46.769Z,13.90
2022-08-07T00:18:24.635Z,14.57
2022-08-07T00:21:08.115Z,13.35
2022-08-07T00:23:52.599Z,16.55
2022-08-07T00:26:59.358Z,13.52
2022-08-07T00:29:06.752Z,16.95
2022-08-07T00:31:38.208Z,14.93
2022-08-07T00:34:09.933Z,13.48
2022-08-07T00:36:43.142Z,13.23
2022-08-07T00:39:16.723Z,14.70
2022-08-07T00:42:01.796Z,16.85
2022-08-07T00:47:01.820Z,16.35
2022-08-07T00:50:17.130Z,14.05
2022-08-07T00:52:17.654Z,13.70
2022-08-07T00:54:53.948Z,14.25
2022-08-07T00:57:25.912Z,14.73
2022-08-07T00:59:54.491Z,13.50
2022-08-07T01:02:29.356Z,17.77
2022-08-07T01:04:59.169Z,15.15
2022-08-07T01:07:29.344Z,14.95
2022-08-07T01:10:06.897Z,14.50
2022-08-07T01:12:53.489Z,12.70
2022-08-07T01:15:36.136Z,13.60
2022-08-07T01:18:17.208Z,16.10
2022-08-07T01:20:59.358Z,13.38
2022-08-07T01:23:38.163Z,15.85
2022-08-07T01:26:13.213Z,19.02
2022-08-07T01:28:48.435Z,15.77
2022-08-07T01:31:27.915Z,16.02
2022-08-07T01:34:09.572Z,17.45
2022-08-07T01:36:41.132Z,16.55
2022-08-07T01:39:16.163Z,16.10
2022-08-07T01:42:01.656Z,16.15
2022-08-07T01:44:37.916Z,17.35
2022-08-07T01:48:18.071Z,18.92
2022-08-07T01:49:53.544Z,18.77
2022-08-07T01:52:25.706Z,21.27
2022-08-07T01:54:56.468Z,18.65
2022-08-07T01:57:30.506Z,21.42
2022-08-07T02:00:13.167Z,18.80
2022-08-07T02:03:12.059Z,18.15
2022-08-07T02:05:43.214Z,21.90
2022-08-07T02:08:23.841Z,17.05
2022-08-07T02:10:55.036Z,19.75
2022-08-07T02:13:57.944Z,17.05
2022-08-07T02:16:33.669Z,17.13
2022-08-07T02:20:07.075Z,15.95
2022-08-07T02:21:59.857Z,16.63
2022-08-07T02:24:30.506Z,20.92
2022-08-07T02:27:01.150Z,15.88
2022-08-07T02:29:30.728Z,14.98
2022-08-07T02:32:01.763Z,15.38
2022-08-07T02:34:32.617Z,14.85
2022-08-07T02:37:08.235Z,15.27
2022-08-07T02:39:43.048Z,15.88
2022-08-07T02:42:33.978Z,14.60
2022-08-07T02:45:07.588Z,16.23
2022-08-07T02:47:55.133Z,15.45
2022-08-07T02:50:26.618Z,13.27
2022-08-07T02:53:06.124Z,15.63
2022-08-07T02:56:03.891Z,15.63
2022-08-07T02:58:28.502Z,16.80
2022-08-07T03:01:04.188Z,14.02
2022-08-07T03:03:50.004Z,14.73
2022-08-07T03:06:26.065Z,13.93
2022-08-07T03:09:01.870Z,15.65
2022-08-07T03:11:32.694Z,12.75
2022-08-07T03:14:02.675Z,13.77
2022-08-07T03:16:35.140Z,15.80
2022-08-07T03:19:03.370Z,12.77
2022-08-07T03:21:33.767Z,16.58
2022-08-07T03:24:19.559Z,14.73
2022-08-07T03:26:58.252Z,12.77
2022-08-07T03:29:37.762Z,16.45
2022-08-07T03:32:13.410Z,13.38
2022-08-07T03:34:47.591Z,15.45
2022-08-07T03:37:37.328Z,12.70
2022-08-07T03:40:15.138Z,12.85
2022-08-07T03:42:44.879Z,12.65
2022-08-07T03:45:30.174Z,12.18
2022-08-07T03:48:01.728Z,14.02
2022-08-07T03:50:30.761Z,12.27
2022-08-07T03:53:00.186Z,16.55
2022-08-07T03:55:52.833Z,14.63
2022-08-07T03:59:05.399Z,14.68
2022-08-07T04:01:11.190Z,12.80
2022-08-07T04:03:49.799Z,13.98
2022-08-07T04:06:36.095Z,15.23
2022-08-07T04:09:15.148Z,12.35
2022-08-07T04:12:25.746Z,12.68
2022-08-07T04:14:39.056Z,13.73
2022-08-07T04:17:21.281Z,11.95
2022-08-07T04:19:55.259Z,12.57
2022-08-07T04:22:29.479Z,13.27
2022-08-07T04:25:02.144Z,12.60
2022-08-07T04:27:35.684Z,12.07
2022-08-07T04:30:21.277Z,13.77
2022-08-07T04:33:15.589Z,12.40
2022-08-07T04:35:51.023Z,12.65
2022-08-07T04:38:22.321Z,12.63
2022-08-07T04:40:51.480Z,11.98
2022-08-07T04:44:09.922Z,13.70
2022-08-07T04:46:36.025Z,12.43
2022-08-07T04:49:29.269Z,9.25
2022-08-07T04:52:26.506Z,12.30
2022-08-07T04:55:14.933Z,12.60
2022-08-07T04:58:38.900Z,10.48
2022-08-07T05:01:30.819Z,12.50
2022-08-07T05:04:17.081Z,13.48
2022-08-07T05:06:53.285Z,15.00
2022-08-07T05:09:45.844Z,10.95
2022-08-07T05:12:30.577Z,14.88
2022-08-07T05:15:23.066Z,16.83
2022-08-07T05:18:08.742Z,9.45
2022-08-07T05:20:46.920Z,11.48
2022-08-07T05:26:15.569Z,12.70
2022-08-07T05:28:53.434Z,13.30
2022-08-07T05:31:34.728Z,11.60
2022-08-07T05:34:11.217Z,10.18
2022-08-07T05:36:48.829Z,12.88
2022-08-07T05:40:13.793Z,8.75
2022-08-07T05:42:34.333Z,9.43
2022-08-07T05:45:25.819Z,10.30
2022-08-07T05:48:02.562Z,10.43
2022-08-07T05:50:44.566Z,11.57
2022-08-07T05:54:12.731Z,8.88
2022-08-07T05:56:05.503Z,9.40
2022-08-07T05:58:39.165Z,13.10
2022-08-07T06:01:11.482Z,9.55
2022-08-07T06:03:57.101Z,11.50
2022-08-07T06:06:34.300Z,9.95
2022-08-07T06:09:05.621Z,10.85
2022-08-07T06:11:38.271Z,12.90
2022-08-07T06:14:11.988Z,9.38
2022-08-07T06:16:50.034Z,10.40
2022-08-07T06:19:47.979Z,12.20
2022-08-07T06:22:15.555Z,11.70
2022-08-07T06:24:56.850Z,9.65
2022-08-07T06:28:00.434Z,13.15
2022-08-07T06:30:36.195Z,11.82
2022-08-07T06:33:02.197Z,10.50
2022-08-07T06:35:45.893Z,8.30
2022-08-07T06:38:19.848Z,12.30
2022-08-07T06:40:53.277Z,12.55
2022-08-07T06:43:25.106Z,12.10
2022-08-07T06:46:12.314Z,10.73
2022-08-07T06:48:42.081Z,13.43
2022-08-07T06:51:24.569Z,12.90
2022-08-07T06:55:30.027Z,10.55
2022-08-07T06:56:52.292Z,10.15
2022-08-07T07:00:12.237Z,8.95
2022-08-07T07:02:48.086Z,10.90
2022-08-07T07:05:13.794Z,11.23
2022-08-07T07:08:07.217Z,12.57
2022-08-07T07:10:37.009Z,9.68
2022-08-07T07:13:40.654Z,14.82
2022-08-07T07:16:27.186Z,14.57
2022-08-07T07:19:04.103Z,14.85
2022-08-07T07:22:05.088Z,14.52
2022-08-07T07:24:30.460Z,18.42
2022-08-07T07:27:03.245Z,15.25
2022-08-07T07:29:56.880Z,13.88
2022-08-07T07:32:25.684Z,9.05
2022-08-07T07:34:59.633Z,13.20
2022-08-07T07:37:49.529Z,12.25
2022-08-07T07:40:19.039Z,13.75
2022-08-07T07:42:53.798Z,9.07
2022-08-07T07:46:38.022Z,8.25
2022-08-07T07:48:35.063Z,7.00
2022-08-07T07:51:08.077Z,8.77
2022-08-07T07:53:52.155Z,10.07
2022-08-07T07:56:30.409Z,7.88
2022-08-07T07:59:02.915Z,11.57
2022-08-07T08:02:01.888Z,8.50
2022-08-07T08:04:25.913Z,8.90
2022-08-07T08:06:55.294Z,6.47
2022-08-07T08:09:29.113Z,6.78
2022-08-07T08:12:02.179Z,8.00
2022-08-07T08:14:36.464Z,5.80
2022-08-07T08:17:55.676Z,6.00
2022-08-07T08:20:19.532Z,6.57
2022-08-07T08:23:14.252Z,10.18
2022-08-07T08:26:06.918Z,8.95
2022-08-07T08:28:44.787Z,6.80
2022-08-07T08:31:22.752Z,7.68
2022-08-07T08:34:06.900Z,6.75
2022-08-07T08:36:37.330Z,7.25
2022-08-07T08:39:09.135Z,12.00
2022-08-07T08:41:58.708Z,9.60
2022-08-07T08:44:44.799Z,7.13
2022-08-07T08:47:56.836Z,9.30
2022-08-07T08:50:39.322Z,9.45
2022-08-07T08:53:29.414Z,11.48
2022-08-07T08:56:06.993Z,9.40
2022-08-07T08:58:54.865Z,9.60
2022-08-07T09:01:59.734Z,9.45
2022-08-07T09:04:41.551Z,8.57
2022-08-07T09:07:46.454Z,6.55
2022-08-07T09:10:47.105Z,10.88
2022-08-07T09:13:37.557Z,8.90
2022-08-07T09:16:30.614Z,11.13
2022-08-07T09:19:51.419Z,7.13
2022-08-07T09:24:54.842Z,9.57
2022-08-07T09:25:54.265Z,14.25
2022-08-07T09:30:04.693Z,7.95
2022-08-07T09:31:53.910Z,8.90
2022-08-07T09:34:27.879Z,11.23
2022-08-07T09:37:03.638Z,10.77
2022-08-07T09:39:57.868Z,9.63
2022-08-07T09:42:51.642Z,13.00
2022-08-07T09:47:51.359Z,10.73
2022-08-07T09:48:43.914Z,8.60
2022-08-07T09:52:16.639Z,8.32
2022-08-07T09:54:41.394Z,8.95
2022-08-07T09:57:31.677Z,10.85
2022-08-07T10:00:14.483Z,7.60
2022-08-07T10:02:55.127Z,6.90
2022-08-07T10:05:29.718Z,8.10
2022-08-07T10:08:32.437Z,11.15
2022-08-07T10:12:01.635Z,17.23
2022-08-07T10:14:30.337Z,16.08
2022-08-07T10:17:23.196Z,10.77
2022-08-07T10:20:04.998Z,11.73
2022-08-07T10:22:33.557Z,12.90
2022-08-07T10:25:10.881Z,14.35
2022-08-07T10:27:59.829Z,9.60
2022-08-07T10:31:15.123Z,8.35
2022-08-07T10:34:17.960Z,7.45
2022-08-07T10:37:10.211Z,4.95
2022-08-07T10:40:18.241Z,8.10
2022-08-07T10:43:15.418Z,7.53
2022-08-07T10:45:58.198Z,7.32
2022-08-07T10:48:48.905Z,8.07
2022-08-07T10:51:57.651Z,9.50
2022-08-07T10:54:13.402Z,7.88
2022-08-07T10:57:03.357Z,5.05
2022-08-07T10:59:53.152Z,6.32
2022-08-07T11:02:33.390Z,5.85
2022-08-07T11:05:44.929Z,9.13
2022-08-07T11:08:20.906Z,5.45
2022-08-07T11:11:03.870Z,5.57
2022-08-07T11:14:42.166Z,6.45
2022-08-07T11:16:59.405Z,6.57
2022-08-07T11:19:58.215Z,5.40
2022-08-07T11:22:43.985Z,4.50
2022-08-07T11:25:25.373Z,5.95
2022-08-07T11:28:27.196Z,7.13
2022-08-07T11:31:11.481Z,7.78
2022-08-07T11:33:58.749Z,5.25
2022-08-07T11:36:49.804Z,4.95
2022-08-07T11:40:00.303Z,6.78
2022-08-07T11:43:08.285Z,7.50
2022-08-07T11:45:49.842Z,7.25
2022-08-07T11:48:29.755Z,7.70
2022-08-07T11:51:40.874Z,7.75
2022-08-07T11:54:15.700Z,7.10
2022-08-07T11:57:01.738Z,7.97
2022-08-07T12:00:12.270Z,11.27
2022-08-07T12:03:42.216Z,8.13
2022-08-07T12:06:39.774Z,6.50
2022-08-07T12:09:33.289Z,6.07
2022-08-07T12:12:12.006Z,7.20
2022-08-07T12:15:05.430Z,6.15
2022-08-07T12:18:13.612Z,9.75
2022-08-07T12:21:07.427Z,6.32
2022-08-07T12:24:05.411Z,8.40
2022-08-07T12:27:14.910Z,8.68
2022-08-07T12:29:54.598Z,8.45
2022-08-07T12:32:52.216Z,8.25
2022-08-07T12:35:21.032Z,7.95
2022-08-07T12:38:09.060Z,7.65
2022-08-07T12:40:48.927Z,7.40
2022-08-07T12:44:03.889Z,7.82
2022-08-07T12:46:37.054Z,6.90
2022-08-07T12:49:39.472Z,5.70
2022-08-07T12:52:19.235Z,8.35
2022-08-07T12:55:40.623Z,5.95
2022-08-07T12:58:12.939Z,5.30
2022-08-07T13:00:54.720Z,6.05
2022-08-07T13:04:05.455Z,9.40
2022-08-07T13:07:01.315Z,6.93
2022-08-07T13:10:19.441Z,9.02
2022-08-07T13:12:50.556Z,7.18
2022-08-07T13:15:35.984Z,6.55
2022-08-07T13:18:51.694Z,5.80
2022-08-07T13:21:50.476Z,7.65
2022-08-07T13:24:31.217Z,6.45
2022-08-07T13:27:10.604Z,5.45
2022-08-07T13:30:04.211Z,6.13
2022-08-07T13:32:55.935Z,4.07
2022-08-07T13:35:24.479Z,4.72
2022-08-07T13:38:24.732Z,5.30
2022-08-07T13:41:31.255Z,5.45
2022-08-07T13:44:02.334Z,4.60
2022-08-07T13:46:38.816Z,5.57
2022-08-07T13:50:35.435Z,6.32
2022-08-07T13:52:32.481Z,6.28
2022-08-07T13:54:57.691Z,7.07
2022-08-07T13:57:38.152Z,7.78
2022-08-07T14:00:13.437Z,5.88
2022-08-07T14:02:58.894Z,8.02
2022-08-07T14:05:37.472Z,8.05
2022-08-07T14:08:08.868Z,7.65
2022-08-07T14:10:43.527Z,9.13
2022-08-07T14:13:16.685Z,7.43
2022-08-07T14:15:56.938Z,8.35
2022-08-07T14:18:32.812Z,7.07
2022-08-07T14:22:02.097Z,6.25
2022-08-07T14:24:26.972Z,7.28
2022-08-07T14:27:01.087Z,6.07
2022-08-07T14:30:07.745Z,6.70
2022-08-07T14:32:45.709Z,6.78
2022-08-07T14:35:43.246Z,7.22
2022-08-07T14:38:26.094Z,6.35
2022-08-07T14:41:03.883Z,4.50
2022-08-07T14:43:57.782Z,5.15
2022-08-07T14:46:30.551Z,8.38
2022-08-07T14:49:55.991Z,6.43
2022-08-07T14:52:04.929Z,5.97
2022-08-07T14:54:42.042Z,12.07
2022-08-07T14:57:19.082Z,6.22
2022-08-07T15:00:06.126Z,5.00
2022-08-07T15:02:37.380Z,6.72
2022-08-07T15:05:20.596Z,4.95
2022-08-07T15:07:52.733Z,6.88
2022-08-07T15:10:26.447Z,6.05
2022-08-07T15:13:01.189Z,6.00
2022-08-07T15:15:43.168Z,5.88
2022-08-07T15:18:33.836Z,5.20
2022-08-07T15:21:44.022Z,5.70
2022-08-07T15:25:13.546Z,4.57
2022-08-07T15:26:58.731Z,4.32
2022-08-07T15:30:09.385Z,4.65
2022-08-07T15:32:39.699Z,4.60
2022-08-07T15:35:18.336Z,5.90
2022-08-07T15:38:30.071Z,4.00
2022-08-07T15:41:00.391Z,4.63
2022-08-07T15:43:55.988Z,6.10
2022-08-07T15:46:31.542Z,4.63
2022-08-07T15:54:34.668Z,4.43
2022-08-07T15:57:10.788Z,4.85
2022-08-07T15:59:59.357Z,4.30
2022-08-07T16:02:30.362Z,4.15
2022-08-07T16:05:01.862Z,5.80
2022-08-07T16:08:32.821Z,4.05
2022-08-07T16:10:23.165Z,6.32
2022-08-07T16:13:17.587Z,5.32
2022-08-07T16:16:48.784Z,6.03
2022-08-07T16:19:10.927Z,5.35
2022-08-07T16:22:03.146Z,5.35
2022-08-07T16:25:00.145Z,4.13
2022-08-07T16:27:39.923Z,5.18
2022-08-07T16:30:30.885Z,5.03
2022-08-07T16:34:02.519Z,5.15
2022-08-07T16:37:02.958Z,7.25
2022-08-07T16:39:52.537Z,4.53
2022-08-07T16:42:45.113Z,7.22
2022-08-07T16:46:21.348Z,4.30
2022-08-07T16:48:53.664Z,6.25
2022-08-07T16:51:54.517Z,4.85
2022-08-07T16:57:15.465Z,4.68
2022-08-07T17:00:01.711Z,5.25
2022-08-07T17:02:51.414Z,6.25
2022-08-07T17:06:19.133Z,8.40
2022-08-07T17:09:14.284Z,8.73
2022-08-07T17:12:01.940Z,8.15
2022-08-07T17:15:20.317Z,8.48
2022-08-07T17:17:47.924Z,8.55
2022-08-07T17:20:41.999Z,8.50
2022-08-07T17:23:32.417Z,8.25
2022-08-07T17:26:23.253Z,6.45
2022-08-07T17:29:09.694Z,7.57
2022-08-07T17:32:30.463Z,5.90
2022-08-07T17:35:49.748Z,7.78
2022-08-07T17:38:33.621Z,5.80
2022-08-07T17:42:03.551Z,5.28
2022-08-07T17:44:34.037Z,4.82
2022-08-07T17:47:38.025Z,6.85
2022-08-07T17:50:19.482Z,7.72
2022-08-07T17:52:55.365Z,5.72
2022-08-07T17:55:54.765Z,6.43
2022-08-07T17:59:09.067Z,6.28
2022-08-07T18:01:56.706Z,6.00
2022-08-07T18:04:34.873Z,6.47
2022-08-07T18:07:22.672Z,7.85
2022-08-07T18:10:29.033Z,7.70
2022-08-07T18:13:17.699Z,5.53
2022-08-07T18:16:05.205Z,6.22
2022-08-07T18:21:00.754Z,6.40
2022-08-07T18:21:55.183Z,7.45
2022-08-07T18:24:42.432Z,7.88
2022-08-07T18:27:38.392Z,7.35
2022-08-07T18:30:32.490Z,6.15
2022-08-07T18:33:10.572Z,6.10
2022-08-07T18:35:51.642Z,6.65
2022-08-07T18:38:55.035Z,7.18
2022-08-07T18:42:04.133Z,5.28
2022-08-07T18:45:43.854Z,5.85
2022-08-07T18:48:02.538Z,5.68
2022-08-07T18:50:47.558Z,5.30
2022-08-07T18:53:55.392Z,6.15
2022-08-07T18:56:30.647Z,6.97
2022-08-07T18:59:47.609Z,7.55
2022-08-07T19:02:34.169Z,6.47
2022-08-07T19:05:15.919Z,6.30
2022-08-07T19:07:52.883Z,7.57
2022-08-07T19:10:31.881Z,9.50
2022-08-07T19:13:37.232Z,8.07
2022-08-07T19:16:42.874Z,7.13
2022-08-07T19:19:32.739Z,8.50
2022-08-07T19:22:11.191Z,14.02
2022-08-07T19:24:50.227Z,10.43
2022-08-07T19:28:58.666Z,10.88
2022-08-07T19:30:57.842Z,13.10
2022-08-07T19:33:13.239Z,10.23
2022-08-07T19:35:46.731Z,11.10
2022-08-07T19:38:17.818Z,12.55
2022-08-07T19:40:50.590Z,8.50
2022-08-07T19:43:48.581Z,8.55
2022-08-07T19:46:26.864Z,11.48
2022-08-07T19:49:07.470Z,11.70
2022-08-07T19:51:53.232Z,7.88
2022-08-07T19:54:34.343Z,8.52
2022-08-07T19:58:01.299Z,7.30
2022-08-07T20:00:10.417Z,10.07
2022-08-07T20:02:51.517Z,11.80
2022-08-07T20:06:00.365Z,9.82
2022-08-07T20:08:30.484Z,10.77
2022-08-07T20:11:04.027Z,7.85
2022-08-07T20:13:47.673Z,9.60
2022-08-07T20:16:35.200Z,10.95
2022-08-07T20:19:10.905Z,31.48
2022-08-07T20:21:46.842Z,16.38
2022-08-07T20:24:21.226Z,13.68
2022-08-07T20:26:54.580Z,9.38
2022-08-07T20:29:47.751Z,9.93
2022-08-07T20:32:39.673Z,11.07
2022-08-07T20:35:15.901Z,11.60
2022-08-07T20:37:58.819Z,11.38
2022-08-07T20:40:33.305Z,14.52
2022-08-07T20:43:09.397Z,14.50
2022-08-07T20:46:28.620Z,13.60
2022-08-07T20:48:37.283Z,15.90
2022-08-07T20:51:09.263Z,13.55
2022-08-07T20:54:02.834Z,11.02
2022-08-07T20:56:30.733Z,12.18
2022-08-07T20:59:06.084Z,13.20
2022-08-07T21:01:58.120Z,10.15
2022-08-07T21:04:31.986Z,12.57
2022-08-07T21:07:04.039Z,13.10
2022-08-07T21:09:52.515Z,11.65
2022-08-07T21:12:31.746Z,13.00
2022-08-07T21:15:01.224Z,10.63
2022-08-07T21:18:28.104Z,9.85
2022-08-07T21:20:29.612Z,9.45
2022-08-07T21:23:08.071Z,9.93
2022-08-07T21:25:58.440Z,9.57
2022-08-07T21:28:48.805Z,12.23
2022-08-07T21:32:47.114Z,12.10
2022-08-07T21:35:11.205Z,9.23
2022-08-07T21:37:59.155Z,10.00
2022-08-07T21:40:50.322Z,10.10
2022-08-07T21:43:23.441Z,10.18
2022-08-07T21:46:24.746Z,10.43
2022-08-07T21:49:17.860Z,9.70
2022-08-07T21:51:54.828Z,7.95
2022-08-07T21:54:52.310Z,11.10
2022-08-07T21:57:44.888Z,9.02
2022-08-07T22:00:25.026Z,10.75
2022-08-07T22:03:31.224Z,9.40
2022-08-07T22:06:03.982Z,13.10
2022-08-07T22:08:39.399Z,14.23
2022-08-07T22:11:08.517Z,13.68
2022-08-07T22:13:51.882Z,14.43
2022-08-07T22:16:56.157Z,15.55
2022-08-07T22:19:29.929Z,15.65
2022-08-07T22:22:29.914Z,14.40
2022-08-07T22:25:08.153Z,14.88
2022-08-07T22:28:20.215Z,16.02
2022-08-07T22:30:40.468Z,17.52
2022-08-07T22:33:12.553Z,18.08
2022-08-07T22:36:11.967Z,19.42
2022-08-07T22:39:10.410Z,16.13
2022-08-07T22:42:03.797Z,16.35
2022-08-07T22:44:56.947Z,15.60
2022-08-07T22:47:49.407Z,18.65
2022-08-07T22:50:37.984Z,14.68
2022-08-07T22:54:06.480Z,16.15
2022-08-07T22:56:38.999Z,15.20
2022-08-07T22:59:50.852Z,14.15
2022-08-07T23:02:21.694Z,14.45
2022-08-07T23:06:08.981Z,15.88
2022-08-07T23:08:24.548Z,14.73
2022-08-07T23:11:22.547Z,11.55
2022-08-07T23:14:16.039Z,12.07
2022-08-07T23:16:55.336Z,12.43
2022-08-07T23:20:16.826Z,14.00
2022-08-07T23:22:56.919Z,13.10
2022-08-07T23:25:48.535Z,12.02
2022-08-07T23:28:29.152Z,13.40
2022-08-07T23:31:06.512Z,12.18
2022-08-07T23:34:36.359Z,13.55
2022-08-07T23:37:17.700Z,10.88
2022-08-07T23:40:30.091Z,12.88
2022-08-07T23:43:24.953Z,12.93
2022-08-07T23:46:23.523Z,10.82
2022-08-07T23:49:50.211Z,10.23
2022-08-07T23:52:58.832Z,10.15
2022-08-07T23:55:52.354Z,13.90
2022-08-07T23:58:51.675Z,11.15
